Time;durP1;ratioP1;P1;durP2;ratioP2;P2;SDS_P1;SDS_P2;PMS_P1;PMS_P2;Temp;Humidity;BMP_temperature;BMP_pressure;BME280_temperature;BME280_humidity;BME280_pressure;Samples;Min_cycle;Max_cycle;Signal;HPM_P1;HPM_P2
2023/06/26 00:01:52;;;;;;;4.57;3.30;;;22.80;93.30;;;;;;4962499;28;20427;-74
2023/06/26 00:04:18;;;;;;;3.58;3.10;;;22.80;93.00;;;;;;4941167;28;20930;-74
2023/06/26 00:06:44;;;;;;;5.57;3.30;;;22.80;93.00;;;;;;4940154;28;20438;-74
2023/06/26 00:09:12;;;;;;;4.85;2.90;;;22.80;92.70;;;;;;4944569;28;21118;-74
2023/06/26 00:11:38;;;;;;;4.50;2.90;;;22.80;92.60;;;;;;4932670;28;20453;-74
2023/06/26 00:14:04;;;;;;;3.40;3.00;;;22.70;92.70;;;;;;4938608;28;20425;-74
2023/06/26 00:16:30;;;;;;;3.28;2.85;;;22.70;92.40;;;;;;4956566;28;21276;-74
2023/06/26 00:18:58;;;;;;;4.07;3.10;;;22.60;92.10;;;;;;4936137;28;20421;-74
2023/06/26 00:21:27;;;;;;;3.80;2.70;;;22.60;92.10;;;;;;4931592;28;21072;-74
2023/06/26 00:23:53;;;;;;;4.30;3.10;;;22.60;92.20;;;;;;4929298;28;20501;-74
2023/06/26 00:26:19;;;;;;;3.63;2.97;;;22.60;92.10;;;;;;4936803;28;20772;-74
2023/06/26 00:28:45;;;;;;;3.33;2.80;;;22.60;92.10;;;;;;4932976;28;20421;-74
2023/06/26 00:31:11;;;;;;;3.28;2.70;;;22.60;92.10;;;;;;4936628;28;20422;-74
2023/06/26 00:33:38;;;;;;;3.90;2.83;;;22.60;92.00;;;;;;4937095;28;20489;-74
2023/06/26 00:36:04;;;;;;;4.60;2.80;;;22.60;91.90;;;;;;4929576;28;20442;-74
2023/06/26 00:38:30;;;;;;;3.97;2.83;;;22.50;91.90;;;;;;4921895;28;20512;-74
2023/06/26 00:40:56;;;;;;;4.53;3.00;;;22.50;91.90;;;;;;4960251;28;20509;-74
2023/06/26 00:43:22;;;;;;;5.07;2.80;;;22.40;91.80;;;;;;4933870;28;20433;-74
2023/06/26 00:45:49;;;;;;;5.28;3.10;;;22.50;91.60;;;;;;4925939;28;20910;-74
2023/06/26 00:48:19;;;;;;;3.70;2.80;;;22.40;91.40;;;;;;4933966;28;20433;-74
2023/06/26 00:50:45;;;;;;;4.90;2.95;;;22.50;91.50;;;;;;4932437;28;20501;-74
2023/06/26 00:53:12;;;;;;;4.72;3.10;;;22.50;91.50;;;;;;4933996;28;20422;-74
2023/06/26 00:55:38;;;;;;;3.60;2.90;;;22.50;91.40;;;;;;4946727;28;21192;-74
2023/06/26 00:58:05;;;;;;;3.30;3.00;;;22.40;91.40;;;;;;4937681;28;20421;-73
2023/06/26 01:00:34;;;;;;;5.22;2.90;;;22.40;91.50;;;;;;4929557;28;20457;-73
2023/06/26 01:03:00;;;;;;;4.63;3.00;;;22.30;91.50;;;;;;4932271;28;20436;-73
2023/06/26 01:05:29;;;;;;;5.18;2.88;;;22.30;91.40;;;;;;4933920;28;20420;-74
2023/06/26 01:07:57;;;;;;;3.43;2.93;;;22.30;91.40;;;;;;4927951;28;20422;-74
2023/06/26 01:10:27;;;;;;;3.97;2.70;;;22.20;91.20;;;;;;4930259;28;20428;-74
2023/06/26 01:12:53;;;;;;;3.90;2.87;;;22.20;91.10;;;;;;4936661;28;22312;-74
2023/06/26 01:15:20;;;;;;;6.32;2.90;;;22.20;91.00;;;;;;4938420;28;20437;-74
2023/06/26 01:17:47;;;;;;;4.30;2.83;;;22.10;91.10;;;;;;4937016;28;20422;-74
2023/06/26 01:20:15;;;;;;;4.32;2.80;;;22.10;91.10;;;;;;4937267;28;20435;-74
2023/06/26 01:23:17;;;;;;;5.40;3.00;;;22.20;91.40;;;;;;4969031;28;20459;-74
2023/06/26 01:25:52;;;;;;;6.88;3.00;;;22.20;91.20;;;;;;4937540;28;20801;-73
2023/06/26 01:28:20;;;;;;;3.30;2.72;;;22.10;91.20;;;;;;4956569;28;20420;-73
2023/06/26 01:30:47;;;;;;;5.13;2.80;;;22.00;91.20;;;;;;4936020;28;20434;-73
2023/06/26 01:33:14;;;;;;;3.70;2.72;;;22.00;91.30;;;;;;4935775;28;20538;-73
2023/06/26 01:35:42;;;;;;;3.17;2.80;;;22.00;91.30;;;;;;4938557;28;20505;-73
2023/06/26 01:38:23;;;;;;;4.68;2.80;;;21.90;91.40;;;;;;4944699;28;20928;-73
2023/06/26 01:40:50;;;;;;;4.38;2.90;;;21.90;91.40;;;;;;4930552;28;20449;-72
2023/06/26 01:43:57;;;;;;;3.60;3.00;;;21.90;91.50;;;;;;4935056;28;20418;-72
2023/06/26 01:46:52;;;;;;;5.50;2.97;;;21.90;91.50;;;;;;4942775;28;20529;-72
2023/06/26 01:49:57;;;;;;;6.07;2.87;;;22.00;91.40;;;;;;4943562;28;20969;-72
2023/06/26 01:52:41;;;;;;;4.63;3.05;;;21.90;91.40;;;;;;4931813;28;20427;-72
2023/06/26 01:55:29;;;;;;;4.30;2.90;;;21.80;91.40;;;;;;4939870;28;20434;-72
2023/06/26 01:57:58;;;;;;;3.60;2.85;;;21.80;91.50;;;;;;4939799;28;20463;-72
2023/06/26 02:00:26;;;;;;;3.45;3.00;;;21.80;91.60;;;;;;4936019;28;20466;-72
2023/06/26 02:02:52;;;;;;;4.82;3.20;;;21.80;91.50;;;;;;4936037;28;20428;-73
2023/06/26 02:05:18;;;;;;;5.18;3.13;;;21.80;91.60;;;;;;4947747;28;20416;-72
2023/06/26 02:07:45;;;;;;;4.88;3.17;;;21.80;91.60;;;;;;4958805;28;22483;-72
2023/06/26 02:10:12;;;;;;;6.50;3.08;;;21.80;91.70;;;;;;4952092;28;20413;-72
2023/06/26 02:12:39;;;;;;;6.18;2.80;;;21.80;91.70;;;;;;4948048;28;20522;-73
2023/06/26 02:15:06;;;;;;;4.70;3.03;;;21.80;91.70;;;;;;4934424;28;20733;-73
2023/06/26 02:17:32;;;;;;;4.82;3.17;;;21.80;91.60;;;;;;4935816;28;22015;-73
2023/06/26 02:19:58;;;;;;;4.07;2.65;;;21.80;91.50;;;;;;4936237;28;20518;-72
2023/06/26 02:22:25;;;;;;;4.15;2.78;;;21.90;91.40;;;;;;4941767;28;20804;-72
2023/06/26 02:24:51;;;;;;;4.27;2.97;;;21.90;91.30;;;;;;4969101;28;20962;-72
2023/06/26 02:27:17;;;;;;;3.90;2.93;;;22.00;91.30;;;;;;4938095;28;20456;-72
2023/06/26 02:29:44;;;;;;;5.00;3.22;;;22.00;91.30;;;;;;4968980;28;20423;-72
2023/06/26 02:32:10;;;;;;;3.90;2.63;;;22.00;91.40;;;;;;4932881;28;20471;-72
2023/06/26 02:34:36;;;;;;;5.03;2.83;;;22.00;91.30;;;;;;4924523;28;20452;-72
2023/06/26 03:33:55;;;;;;;3.50;3.05;;;22.20;92.00;;;;;;4935519;28;20505;-73
2023/06/26 03:36:22;;;;;;;4.82;3.20;;;22.30;92.20;;;;;;4933745;28;20428;-73
2023/06/26 03:38:48;;;;;;;3.78;3.10;;;22.30;92.30;;;;;;4941057;28;20914;-73
2023/06/26 03:41:14;;;;;;;4.43;3.00;;;22.30;92.40;;;;;;4948343;28;20933;-73
2023/06/26 03:43:40;;;;;;;4.32;2.90;;;22.30;92.40;;;;;;4939090;28;20450;-73
2023/06/26 03:46:06;;;;;;;4.03;3.15;;;22.30;92.60;;;;;;4954013;28;20919;-73
2023/06/26 03:48:33;;;;;;;4.13;3.00;;;22.30;92.70;;;;;;4937181;28;20427;-73
2023/06/26 03:51:01;;;;;;;3.72;2.80;;;22.30;92.80;;;;;;4937177;28;20429;-73
2023/06/26 03:53:27;;;;;;;4.10;3.00;;;22.30;93.00;;;;;;4942157;28;20433;-73
2023/06/26 03:55:53;;;;;;;5.32;3.00;;;22.40;93.30;;;;;;4938546;28;20424;-73
2023/06/26 03:58:19;;;;;;;5.07;3.00;;;22.30;93.00;;;;;;4939728;28;20442;-73
2023/06/26 04:00:47;;;;;;;3.93;3.20;;;22.40;93.30;;;;;;4939668;28;20494;-73
2023/06/26 04:03:13;;;;;;;4.40;3.10;;;22.40;93.30;;;;;;4934642;28;20437;-73
2023/06/26 04:05:39;;;;;;;4.65;2.92;;;22.50;93.30;;;;;;4936840;28;20531;-73
2023/06/26 04:08:05;;;;;;;3.60;2.85;;;22.60;93.10;;;;;;4937086;28;20951;-74
2023/06/26 04:10:32;;;;;;;4.40;2.90;;;22.60;93.10;;;;;;4940882;28;20428;-73
2023/06/26 04:12:58;;;;;;;3.33;2.92;;;22.70;93.20;;;;;;4930212;28;20420;-73
2023/06/26 04:15:24;;;;;;;3.67;3.10;;;22.70;93.00;;;;;;4943809;28;20431;-73
2023/06/26 04:17:50;;;;;;;5.57;2.93;;;22.80;93.00;;;;;;4950831;28;20930;-73
2023/06/26 04:20:16;;;;;;;4.88;2.95;;;22.80;93.10;;;;;;4935237;28;20440;-73
2023/06/26 04:22:43;;;;;;;3.45;2.90;;;22.80;93.10;;;;;;4942756;28;20428;-73
2023/06/26 04:25:12;;;;;;;4.78;2.80;;;22.80;93.30;;;;;;4936295;28;20985;-73
2023/06/26 04:27:39;;;;;;;4.05;3.20;;;22.90;93.30;;;;;;4963869;28;20474;-74
2023/06/26 04:30:06;;;;;;;3.95;3.05;;;22.90;93.40;;;;;;4946528;28;20437;-73
2023/06/26 04:32:32;;;;;;;4.60;2.80;;;23.00;93.40;;;;;;4967107;28;20836;-73
2023/06/26 04:34:58;;;;;;;3.40;2.90;;;23.10;93.10;;;;;;4942302;28;20422;-73
2023/06/26 04:37:25;;;;;;;4.70;2.90;;;23.20;93.20;;;;;;4942517;28;20421;-73
2023/06/26 04:39:52;;;;;;;3.78;2.92;;;23.20;92.90;;;;;;4923761;28;20423;-73
2023/06/26 04:42:21;;;;;;;4.30;2.70;;;23.30;92.80;;;;;;4948618;28;20420;-73
2023/06/26 04:44:47;;;;;;;3.07;2.60;;;23.40;92.90;;;;;;4942115;28;20452;-73
2023/06/26 04:47:15;;;;;;;3.50;2.90;;;23.50;92.00;;;;;;4951266;28;20451;-73
2023/06/26 04:49:45;;;;;;;5.38;3.10;;;23.60;91.50;;;;;;4961103;28;20847;-74
2023/06/26 04:52:15;;;;;;;3.10;2.80;;;23.70;91.20;;;;;;4945843;28;20426;-74
2023/06/26 04:54:42;;;;;;;6.38;2.90;;;23.80;92.00;;;;;;4930318;28;20422;-74
2023/06/26 04:57:11;;;;;;;3.00;2.70;;;23.80;92.00;;;;;;4937837;28;20585;-74
2023/06/26 04:59:38;;;;;;;7.25;3.03;;;23.90;92.50;;;;;;4942708;28;20559;-73
2023/06/26 05:02:05;;;;;;;4.03;3.10;;;23.90;92.60;;;;;;4945357;28;20465;-73
2023/06/26 05:04:31;;;;;;;6.47;2.70;;;23.90;92.60;;;;;;4930814;28;20426;-72
2023/06/26 05:06:58;;;;;;;4.50;2.80;;;23.90;92.10;;;;;;4958658;28;20776;-75
2023/06/26 05:09:24;;;;;;;5.00;2.83;;;24.00;92.40;;;;;;4949502;28;20767;-74
2023/06/26 05:11:50;;;;;;;6.82;3.15;;;24.00;92.10;;;;;;4943104;28;22147;-74
2023/06/26 05:14:17;;;;;;;4.10;2.70;;;24.10;91.80;;;;;;4937457;28;20424;-74
2023/06/26 05:16:43;;;;;;;4.47;2.90;;;24.20;91.30;;;;;;4941971;28;20986;-74
2023/06/26 05:19:09;;;;;;;3.03;2.72;;;24.20;91.30;;;;;;4945070;28;20510;-74
2023/06/26 05:21:36;;;;;;;3.35;2.80;;;24.30;91.60;;;;;;4964376;28;20476;-74
2023/06/26 05:24:04;;;;;;;4.30;3.00;;;24.30;91.40;;;;;;4934846;28;20479;-74
2023/06/26 05:26:30;;;;;;;5.43;3.07;;;24.40;91.50;;;;;;4951272;28;20459;-74
2023/06/26 05:28:57;;;;;;;5.22;2.78;;;24.40;92.10;;;;;;4938056;28;20473;-74
2023/06/26 05:31:24;;;;;;;3.50;2.70;;;24.50;90.20;;;;;;4938098;28;20442;-74
2023/06/26 05:33:55;;;;;;;4.40;2.75;;;24.60;90.50;;;;;;4957374;28;20475;-74
2023/06/26 05:36:24;;;;;;;3.45;2.75;;;24.70;90.50;;;;;;4964966;28;20432;-73
2023/06/26 05:38:50;;;;;;;3.53;2.60;;;24.70;90.10;;;;;;4959618;28;20974;-73
2023/06/26 05:41:17;;;;;;;4.65;2.90;;;24.80;90.50;;;;;;4944486;28;20519;-73
2023/06/26 05:43:43;;;;;;;4.00;2.72;;;24.80;90.00;;;;;;4935443;28;20432;-73
2023/06/26 05:46:09;;;;;;;3.03;2.60;;;24.90;90.00;;;;;;4936863;28;20509;-73
2023/06/26 05:48:36;;;;;;;3.08;2.70;;;25.00;89.80;;;;;;4941706;28;20415;-73
2023/06/26 06:53:38;;;;;;;4.50;3.57;;;27.10;91.70;;;;;;4947301;28;20460;-73
2023/06/26 06:56:04;;;;;;;7.83;3.50;;;27.30;93.50;;;;;;4936658;28;21249;-75
2023/06/26 06:58:35;;;;;;;6.68;3.40;;;27.40;93.90;;;;;;4941555;28;20441;-75
2023/06/26 07:01:02;;;;;;;5.80;3.10;;;27.50;93.00;;;;;;4937413;28;20431;-74
2023/06/26 07:03:29;;;;;;;3.17;2.67;;;27.50;93.50;;;;;;4935768;28;20507;-74
2023/06/26 07:05:56;;;;;;;4.90;2.90;;;27.50;90.60;;;;;;4941378;28;21006;-75
2023/06/26 07:08:22;;;;;;;4.78;3.10;;;27.50;86.60;;;;;;4941057;28;20510;-75
2023/06/26 07:10:48;;;;;;;4.60;2.80;;;27.60;90.00;;;;;;4937983;28;20430;-75
2023/06/26 07:13:15;;;;;;;5.97;3.42;;;27.70;87.20;;;;;;4934470;28;20900;-75
2023/06/26 07:15:41;;;;;;;3.97;3.10;;;27.80;92.60;;;;;;4929332;28;20602;-75
2023/06/26 07:18:07;;;;;;;4.20;3.20;;;27.90;90.80;;;;;;4933581;28;20427;-75
2023/06/26 07:20:33;;;;;;;8.33;2.90;;;28.00;91.10;;;;;;4943514;28;20829;-75
2023/06/26 07:23:00;;;;;;;4.00;3.07;;;28.10;91.30;;;;;;4950347;28;21235;-73
2023/06/26 07:25:26;;;;;;;6.45;3.70;;;28.10;92.00;;;;;;4935529;28;20419;-73
2023/06/26 07:27:52;;;;;;;11.63;3.90;;;28.30;94.60;;;;;;4930493;28;21058;-73
2023/06/26 07:30:18;;;;;;;5.90;3.60;;;28.40;95.00;;;;;;4933147;28;21124;-73
2023/06/26 07:32:46;;;;;;;4.82;3.50;;;28.50;94.60;;;;;;4936744;28;20423;-73
2023/06/26 07:35:12;;;;;;;4.55;3.28;;;28.60;93.30;;;;;;4947380;28;21199;-74
2023/06/26 07:37:38;;;;;;;5.60;3.40;;;28.70;93.50;;;;;;4931773;28;21922;-74
2023/06/26 07:40:06;;;;;;;5.35;3.63;;;28.80;94.30;;;;;;4941467;28;20465;-74
2023/06/26 07:42:32;;;;;;;6.43;3.55;;;28.90;93.50;;;;;;4937167;28;21210;-74
2023/06/26 07:44:58;;;;;;;4.47;3.50;;;29.00;95.00;;;;;;4931040;28;20439;-74
2023/06/26 07:47:25;;;;;;;7.67;3.60;;;29.10;95.30;;;;;;4938611;28;20831;-74
2023/06/26 07:49:51;;;;;;;3.88;3.05;;;29.20;93.20;;;;;;4937006;28;20417;-74
2023/06/26 07:52:19;;;;;;;5.65;3.70;;;29.20;91.40;;;;;;4932455;28;20420;-74
2023/06/26 07:54:45;;;;;;;4.13;3.45;;;29.40;92.90;;;;;;4950186;28;20438;-74
2023/06/26 07:57:12;;;;;;;7.33;3.87;;;29.50;94.10;;;;;;4935785;28;21145;-75
2023/06/26 07:59:39;;;;;;;5.68;3.67;;;29.60;94.20;;;;;;4939539;28;20430;-75
2023/06/26 08:02:06;;;;;;;8.13;3.70;;;29.70;93.40;;;;;;4940629;28;20431;-75
2023/06/26 08:04:33;;;;;;;7.82;3.83;;;29.80;93.30;;;;;;4937128;28;20426;-74
2023/06/26 08:07:01;;;;;;;5.73;3.53;;;29.90;93.60;;;;;;4964204;28;21094;-74
2023/06/26 08:09:29;;;;;;;6.57;3.60;;;30.00;93.50;;;;;;4962491;28;20520;-74
2023/06/26 08:11:56;;;;;;;5.10;3.60;;;30.30;93.30;;;;;;4933629;28;21048;-75
2023/06/26 08:14:23;;;;;;;9.07;4.10;;;30.40;93.90;;;;;;4938450;28;20433;-74
2023/06/26 08:16:50;;;;;;;8.43;3.97;;;30.60;95.50;;;;;;4931042;28;20470;-74
2023/06/26 08:19:17;;;;;;;4.47;3.40;;;30.60;95.10;;;;;;4931317;28;21009;-73
2023/06/26 08:21:48;;;;;;;5.72;3.55;;;30.60;92.60;;;;;;4935354;28;20888;-73
2023/06/26 08:24:18;;;;;;;8.38;3.92;;;30.80;92.30;;;;;;4928088;28;20422;-74
2023/06/26 08:26:47;;;;;;;8.38;3.95;;;30.90;93.20;;;;;;4945574;28;20417;-73
2023/06/26 08:29:14;;;;;;;10.60;3.90;;;31.00;93.70;;;;;;4934598;28;20426;-74
2023/06/26 08:31:42;;;;;;;6.72;4.07;;;31.00;94.30;;;;;;4933036;28;20425;-73
2023/06/26 08:34:09;;;;;;;6.13;3.50;;;31.10;93.30;;;;;;4928812;28;20421;-74
2023/06/26 08:36:35;;;;;;;5.82;3.78;;;31.20;92.20;;;;;;4929681;28;20417;-74
2023/06/26 08:39:02;;;;;;;6.03;3.70;;;31.30;93.10;;;;;;4935830;28;20429;-74
2023/06/26 08:41:29;;;;;;;10.05;4.07;;;31.50;93.30;;;;;;4939172;28;20434;-74
2023/06/26 08:43:55;;;;;;;7.88;3.60;;;31.60;93.70;;;;;;4932828;28;20418;-74
2023/06/26 08:46:21;;;;;;;8.05;4.10;;;31.70;93.60;;;;;;4933130;28;20861;-74
2023/06/26 08:49:05;;;;;;;8.10;4.35;;;31.70;95.30;;;;;;4930378;28;20521;-74
2023/06/26 08:51:37;;;;;;;8.85;3.85;;;31.70;95.60;;;;;;4934948;28;20463;-74
2023/06/26 08:54:11;;;;;;;6.40;4.15;;;31.70;95.10;;;;;;4955638;28;20415;-74
2023/06/26 08:56:45;;;;;;;6.73;3.87;;;31.70;94.80;;;;;;4934509;28;20473;-73
2023/06/26 08:59:14;;;;;;;6.85;4.28;;;31.80;95.70;;;;;;4944210;28;20516;-74
2023/06/26 09:01:41;;;;;;;8.38;3.72;;;31.80;96.00;;;;;;4922325;28;20426;-73
2023/06/26 09:04:08;;;;;;;8.50;4.30;;;31.90;95.20;;;;;;4933630;28;20469;-73
2023/06/26 09:06:35;;;;;;;8.85;4.05;;;31.90;96.40;;;;;;4928040;28;20432;-74
2023/06/26 09:09:02;;;;;;;6.72;4.03;;;32.10;96.40;;;;;;4933847;28;20414;-74
2023/06/26 09:11:29;;;;;;;7.38;4.50;;;32.10;96.10;;;;;;4933282;28;20531;-72
2023/06/26 09:13:56;;;;;;;7.28;4.32;;;32.00;96.10;;;;;;4934399;28;20476;-72
2023/06/26 09:16:27;;;;;;;8.65;4.50;;;32.10;96.50;;;;;;4959406;28;20426;-72
2023/06/26 09:18:53;;;;;;;6.50;3.88;;;32.30;96.30;;;;;;4939428;28;20422;-72
2023/06/26 09:21:21;;;;;;;8.67;4.53;;;32.40;96.20;;;;;;4931950;28;20430;-72
2023/06/26 09:23:47;;;;;;;7.10;4.10;;;32.50;95.80;;;;;;4934783;28;20859;-72
2023/06/26 09:26:16;;;;;;;7.35;4.30;;;32.60;95.80;;;;;;4933663;28;20436;-72
2023/06/26 09:28:43;;;;;;;6.75;3.95;;;32.50;95.80;;;;;;4936310;28;20446;-72
2023/06/26 09:31:10;;;;;;;6.78;4.00;;;32.60;96.00;;;;;;4940998;28;20426;-72
2023/06/26 09:33:38;;;;;;;6.60;4.25;;;32.60;96.00;;;;;;4938724;28;20799;-72
2023/06/26 09:36:12;;;;;;;8.80;4.20;;;32.90;95.30;;;;;;4962698;28;20436;-72
2023/06/26 09:38:38;;;;;;;6.47;3.65;;;33.20;95.50;;;;;;4939751;28;21338;-72
2023/06/26 09:41:05;;;;;;;7.28;3.90;;;33.10;94.20;;;;;;4947527;28;20773;-72
2023/06/26 09:43:31;;;;;;;10.23;4.03;;;33.30;93.80;;;;;;4941836;28;20421;-72
2023/06/26 09:45:58;;;;;;;5.55;3.88;;;33.30;93.10;;;;;;4937986;28;21169;-72
2023/06/26 09:48:25;;;;;;;6.60;3.92;;;33.40;93.30;;;;;;4940960;28;20464;-72
2023/06/26 09:50:51;;;;;;;6.17;3.70;;;33.50;93.20;;;;;;4939059;28;20414;-73
2023/06/26 09:53:18;;;;;;;5.50;3.53;;;33.70;92.60;;;;;;4929770;28;20481;-72
2023/06/26 09:55:45;;;;;;;6.53;3.83;;;33.60;93.00;;;;;;4932620;28;20943;-73
2023/06/26 09:58:14;;;;;;;5.53;3.60;;;33.70;92.30;;;;;;4916260;28;20966;-72
2023/06/26 10:00:44;;;;;;;6.47;3.97;;;33.70;92.60;;;;;;4907413;28;20417;-72
2023/06/26 10:03:14;;;;;;;7.35;3.92;;;33.90;93.30;;;;;;4917240;28;20763;-72
2023/06/26 10:05:41;;;;;;;7.00;3.85;;;33.80;93.70;;;;;;4914241;28;20437;-72
2023/06/26 10:08:08;;;;;;;5.88;3.55;;;33.80;93.80;;;;;;4914781;28;20427;-72
2023/06/26 10:10:37;;;;;;;5.80;3.50;;;33.90;91.80;;;;;;4916565;28;20423;-72
2023/06/26 10:13:22;;;;;;;5.38;3.30;;;33.90;90.60;;;;;;4902888;28;20485;-72
2023/06/26 10:15:51;;;;;;;5.95;3.45;;;34.20;91.20;;;;;;4919724;28;21277;-72
2023/06/26 10:18:23;;;;;;;6.28;3.30;;;34.10;89.60;;;;;;4913206;28;20964;-72
2023/06/26 10:20:55;;;;;;;4.63;3.30;;;34.10;90.80;;;;;;4912800;28;20484;-72
2023/06/26 10:23:27;;;;;;;5.17;3.57;;;34.20;91.30;;;;;;4880806;28;20528;-72
2023/06/26 10:25:58;;;;;;;6.20;3.53;;;34.10;90.80;;;;;;4919961;28;20959;-73
2023/06/26 10:28:26;;;;;;;6.43;3.78;;;34.10;92.10;;;;;;4932382;28;20423;-72
2023/06/26 10:30:54;;;;;;;8.40;3.70;;;34.10;92.40;;;;;;4919955;28;20435;-72
2023/06/26 10:33:21;;;;;;;5.72;3.67;;;33.90;91.40;;;;;;4940463;28;20507;-72
2023/06/26 10:35:48;;;;;;;7.85;3.53;;;33.70;90.80;;;;;;4915754;28;20431;-72
2023/06/26 10:38:15;;;;;;;5.90;3.45;;;33.60;91.30;;;;;;4917130;28;21016;-72
2023/06/26 10:40:48;;;;;;;6.28;3.42;;;33.30;90.80;;;;;;4912791;28;20934;-72
2023/06/26 10:43:16;;;;;;;6.93;3.28;;;33.30;91.40;;;;;;4915621;28;20429;-72
2023/06/26 10:46:03;;;;;;;6.27;3.67;;;33.30;92.30;;;;;;4910616;28;20437;-72
2023/06/26 10:48:30;;;;;;;7.50;3.80;;;33.00;92.20;;;;;;4913474;28;20549;-72
2023/06/26 10:50:56;;;;;;;6.82;3.72;;;33.00;93.50;;;;;;4919255;28;20423;-72
2023/06/26 10:53:26;;;;;;;7.57;3.75;;;32.90;92.60;;;;;;4925548;28;20427;-72
2023/06/26 10:56:05;;;;;;;8.30;4.35;;;32.90;93.50;;;;;;4923349;28;20425;-73
2023/06/26 10:58:40;;;;;;;7.07;3.53;;;32.80;92.10;;;;;;4921415;28;20431;-73
2023/06/26 11:01:15;;;;;;;6.17;3.50;;;32.70;92.30;;;;;;4915565;28;20459;-72
2023/06/26 11:03:45;;;;;;;8.10;3.60;;;32.70;91.20;;;;;;4945817;28;20427;-72
2023/06/26 11:07:11;;;;;;;6.47;3.65;;;32.50;90.90;;;;;;4917587;28;20425;-72
2023/06/26 11:10:08;;;;;;;6.53;3.90;;;32.50;91.80;;;;;;4998652;28;20419;-72
2023/06/26 11:12:43;;;;;;;6.43;3.43;;;32.40;92.20;;;;;;4925975;28;20417;-72
2023/06/26 11:15:19;;;;;;;5.37;3.20;;;32.20;91.00;;;;;;4903831;28;20769;-72
2023/06/26 11:17:46;;;;;;;7.00;3.40;;;32.20;90.00;;;;;;4915001;28;20839;-72
2023/06/26 11:20:18;;;;;;;6.45;3.40;;;32.10;90.90;;;;;;4919351;28;20422;-72
2023/06/26 11:22:44;;;;;;;6.45;3.40;;;32.00;90.70;;;;;;4926282;28;21000;-72
2023/06/26 11:25:11;;;;;;;3.85;3.00;;;32.00;89.70;;;;;;4922262;28;20426;-72
2023/06/26 11:27:41;;;;;;;5.27;3.20;;;32.10;87.00;;;;;;4918474;28;20512;-74
2023/06/26 11:30:23;;;;;;;3.77;3.03;;;32.10;90.10;;;;;;4911915;28;20425;-72
2023/06/26 11:32:50;;;;;;;6.55;3.15;;;32.10;89.10;;;;;;4915476;28;20505;-72
2023/06/26 11:35:32;;;;;;;7.72;3.50;;;32.10;90.10;;;;;;4915415;28;21309;-72
2023/06/26 11:38:04;;;;;;;5.93;3.67;;;32.10;91.70;;;;;;4916265;28;20411;-72
2023/06/26 11:40:34;;;;;;;5.80;3.30;;;32.10;92.30;;;;;;4914055;28;20518;-72
2023/06/26 12:27:17;;;;;;;4.57;3.35;;;31.90;88.70;;;;;;4912374;28;20435;-72
2023/06/26 12:29:53;;;;;;;3.90;2.95;;;31.70;88.60;;;;;;4911939;28;21531;-73
2023/06/26 12:32:21;;;;;;;5.97;3.30;;;31.70;89.50;;;;;;4914156;28;20423;-73
2023/06/26 12:34:50;;;;;;;5.13;3.15;;;31.70;88.60;;;;;;4914171;28;21028;-73
2023/06/26 12:37:48;;;;;;;4.82;2.90;;;31.70;88.50;;;;;;4949310;28;20484;-72
2023/06/26 12:40:22;;;;;;;6.85;3.33;;;31.70;88.80;;;;;;4909797;28;21155;-73
2023/06/26 12:42:48;;;;;;;8.13;3.23;;;31.60;87.90;;;;;;4934746;28;21273;-73
2023/06/26 12:45:15;;;;;;;5.25;3.00;;;31.70;88.50;;;;;;4927994;28;20806;-73
2023/06/26 12:47:42;;;;;;;4.15;3.00;;;31.60;89.00;;;;;;4907034;28;20939;-72
2023/06/26 12:50:09;;;;;;;7.32;3.35;;;31.50;86.90;;;;;;4916067;28;21307;-72
2023/06/26 12:52:36;;;;;;;7.40;3.33;;;31.50;87.30;;;;;;4912061;28;20493;-72
2023/06/26 12:55:02;;;;;;;6.77;3.70;;;31.60;90.00;;;;;;4941938;28;20427;-73
2023/06/26 12:57:28;;;;;;;5.80;3.40;;;31.60;91.10;;;;;;4945921;28;20443;-73
2023/06/26 12:59:55;;;;;;;6.20;3.20;;;31.60;90.80;;;;;;4943948;28;21161;-73
2023/06/26 13:02:21;;;;;;;5.00;3.50;;;31.70;90.20;;;;;;4914564;28;20953;-73
2023/06/26 13:05:15;;;;;;;6.20;3.73;;;31.60;91.00;;;;;;4922508;28;20861;-73
2023/06/26 13:07:42;;;;;;;7.38;3.70;;;31.60;92.00;;;;;;4918346;28;20434;-72
2023/06/26 13:10:08;;;;;;;7.67;3.77;;;31.70;91.50;;;;;;4914102;28;20420;-73
2023/06/26 13:12:34;;;;;;;8.27;3.75;;;31.50;91.00;;;;;;4905357;28;20886;-72
2023/06/26 13:15:01;;;;;;;6.05;3.55;;;31.50;92.30;;;;;;4928061;28;21435;-72
2023/06/26 13:17:27;;;;;;;5.82;3.40;;;31.50;91.60;;;;;;4918841;28;20424;-72
2023/06/26 13:19:53;;;;;;;6.57;3.55;;;31.50;91.70;;;;;;4922672;28;21141;-72
2023/06/26 13:22:20;;;;;;;7.22;3.72;;;31.50;91.50;;;;;;4920300;28;20952;-72
2023/06/26 13:47:21;;;;;;;5.88;4.05;;;31.20;91.90;;;;;;4920296;28;20938;-72
2023/06/26 13:49:47;;;;;;;8.43;3.93;;;31.20;91.30;;;;;;4923741;28;20439;-72
2023/06/26 13:52:14;;;;;;;5.85;3.88;;;31.10;91.70;;;;;;4936644;28;21117;-72
2023/06/26 13:54:41;;;;;;;6.35;3.90;;;31.10;91.70;;;;;;4922752;28;20432;-72
2023/06/26 13:57:07;;;;;;;6.55;3.80;;;31.20;90.80;;;;;;4919516;28;20427;-72
2023/06/26 13:59:37;;;;;;;6.93;3.80;;;31.20;91.10;;;;;;4914925;28;21018;-72
2023/06/26 14:02:05;;;;;;;5.28;3.33;;;31.20;91.10;;;;;;4914999;28;20505;-72
2023/06/26 14:04:31;;;;;;;5.13;3.22;;;31.20;90.20;;;;;;4917097;28;20462;-72
2023/06/26 14:06:58;;;;;;;5.32;3.40;;;31.20;88.60;;;;;;5002476;28;20442;-72
2023/06/26 14:09:25;;;;;;;6.32;3.42;;;31.20;88.60;;;;;;4904999;28;20419;-72
2023/06/26 14:11:51;;;;;;;5.93;3.60;;;31.10;90.10;;;;;;4917511;28;20520;-72
2023/06/26 14:14:17;;;;;;;7.32;3.83;;;31.10;91.20;;;;;;4926047;28;20420;-72
2023/06/26 14:16:44;;;;;;;7.10;3.60;;;31.10;91.00;;;;;;4927126;28;20446;-72
2023/06/26 14:19:14;;;;;;;5.40;3.70;;;31.10;92.10;;;;;;4915437;28;20942;-72
2023/06/26 14:21:41;;;;;;;8.10;3.90;;;31.00;92.60;;;;;;4912261;28;20474;-72
2023/06/26 14:24:07;;;;;;;6.20;4.07;;;30.90;92.90;;;;;;4920487;28;20423;-73
2023/06/26 14:26:33;;;;;;;6.38;4.00;;;30.90;92.70;;;;;;4936086;28;20431;-72
2023/06/26 14:29:00;;;;;;;6.68;3.75;;;30.90;92.40;;;;;;4999334;28;20611;-72
2023/06/26 14:31:27;;;;;;;8.73;4.00;;;30.80;91.90;;;;;;4918420;28;21345;-72
2023/06/26 14:33:53;;;;;;;8.50;3.90;;;30.70;92.90;;;;;;4917348;28;20427;-72
2023/06/26 14:36:19;;;;;;;6.90;3.80;;;30.70;92.90;;;;;;4917774;28;20510;-72
2023/06/26 14:38:46;;;;;;;4.43;3.40;;;30.60;92.50;;;;;;4943087;28;20467;-72
2023/06/26 14:41:12;;;;;;;7.70;3.55;;;30.50;92.20;;;;;;4918732;28;20410;-72
2023/06/26 14:43:39;;;;;;;5.97;3.55;;;30.60;92.20;;;;;;4947237;28;20412;-72
2023/06/26 14:46:05;;;;;;;7.38;3.70;;;30.40;91.90;;;;;;4924598;28;20538;-72
2023/06/26 14:48:32;;;;;;;5.53;3.50;;;30.40;92.50;;;;;;4954099;28;20423;-72
2023/06/26 14:51:00;;;;;;;5.78;3.80;;;30.30;91.80;;;;;;4904093;28;20435;-72
2023/06/26 14:53:26;;;;;;;7.00;3.60;;;30.20;92.10;;;;;;4916726;28;20439;-72
2023/06/26 14:55:52;;;;;;;5.68;3.80;;;30.20;92.00;;;;;;4928378;28;20470;-72
2023/06/26 14:58:19;;;;;;;5.78;3.60;;;30.20;92.00;;;;;;4912518;28;20435;-72
2023/06/26 15:00:45;;;;;;;7.60;3.92;;;30.20;92.20;;;;;;4947908;28;20457;-72
2023/06/26 15:03:11;;;;;;;9.63;3.75;;;30.10;92.60;;;;;;4925575;28;20429;-72
2023/06/26 15:05:38;;;;;;;10.07;4.20;;;30.10;92.50;;;;;;4918642;28;20549;-72
2023/06/26 15:08:04;;;;;;;5.80;4.00;;;30.00;92.30;;;;;;4913921;28;20810;-72
2023/06/26 15:10:31;;;;;;;5.03;3.47;;;29.90;92.00;;;;;;4932570;28;20922;-72
2023/06/26 15:12:57;;;;;;;6.67;3.87;;;29.90;91.70;;;;;;4916362;28;20435;-72
2023/06/26 15:15:24;;;;;;;7.25;3.45;;;29.80;91.80;;;;;;4930147;28;20443;-72
2023/06/26 15:17:51;;;;;;;5.70;3.70;;;29.70;91.50;;;;;;4912761;28;20534;-72
2023/06/26 15:20:17;;;;;;;5.43;3.60;;;29.70;91.50;;;;;;4909515;28;20429;-72
2023/06/26 15:22:43;;;;;;;5.78;3.58;;;29.70;91.40;;;;;;4932037;28;20442;-72
2023/06/26 15:25:10;;;;;;;5.78;3.35;;;29.70;91.70;;;;;;4927346;28;21472;-72
2023/06/26 15:27:36;;;;;;;7.72;3.92;;;29.70;91.00;;;;;;4910975;28;20506;-72
2023/06/26 15:30:03;;;;;;;6.15;3.58;;;29.70;91.40;;;;;;4920310;28;21122;-72
2023/06/26 15:32:29;;;;;;;6.22;3.67;;;29.60;91.80;;;;;;4912369;28;20787;-72
2023/06/26 15:34:56;;;;;;;5.22;3.70;;;29.50;92.30;;;;;;4914073;28;20488;-72
2023/06/26 15:37:22;;;;;;;8.77;3.53;;;29.50;91.70;;;;;;4916932;28;20435;-72
2023/06/26 15:39:49;;;;;;;8.05;3.78;;;29.40;91.90;;;;;;4928592;28;21196;-72
2023/06/26 15:42:15;;;;;;;7.07;3.60;;;29.30;92.10;;;;;;4913173;28;20435;-71
2023/06/26 15:44:41;;;;;;;10.10;4.00;;;29.20;92.20;;;;;;4913030;28;20445;-72
2023/06/26 15:47:07;;;;;;;5.28;3.72;;;29.10;92.00;;;;;;4942643;28;20425;-72
2023/06/26 15:49:33;;;;;;;6.38;3.85;;;29.10;92.30;;;;;;4914386;28;20423;-72
2023/06/26 15:52:00;;;;;;;6.47;3.70;;;29.10;92.90;;;;;;4914758;28;20423;-72
2023/06/26 15:54:26;;;;;;;7.22;4.07;;;29.00;92.80;;;;;;4916768;28;20446;-72
2023/06/26 15:56:53;;;;;;;5.90;3.63;;;29.00;92.70;;;;;;4919073;28;21056;-72
2023/06/26 15:59:19;;;;;;;4.83;3.70;;;28.90;92.70;;;;;;4924886;28;20432;-72